sensor_id;sensor_type;location;lat;lon;timestamp;pressure;altitude;pressure_sealevel;temperature;humidity
73870;BME280;64924;42.140;24.762;2024-01-25T00:02:17;100013.75;;;6.27;52.65
73870;BME280;64924;42.140;24.762;2024-01-25T00:04:42;100020.19;;;6.34;52.30
73870;BME280;64924;42.140;24.762;2024-01-25T00:07:08;99992.19;;;6.27;52.37
73870;BME280;64924;42.140;24.762;2024-01-25T00:09:35;99986.09;;;6.25;52.49
73870;BME280;64924;42.140;24.762;2024-01-25T00:12:00;99970.22;;;6.22;52.46
73870;BME280;64924;42.140;24.762;2024-01-25T00:14:26;99971.91;;;6.23;52.57
73870;BME280;64924;42.140;24.762;2024-01-25T00:16:51;99963.97;;;5.95;53.29
73870;BME280;64924;42.140;24.762;2024-01-25T00:19:17;99969.19;;;5.89;53.19
73870;BME280;64924;42.140;24.762;2024-01-25T00:21:43;99988.63;;;6.00;53.32
73870;BME280;64924;42.140;24.762;2024-01-25T00:24:11;99999.38;;;5.92;53.69
73870;BME280;64924;42.140;24.762;2024-01-25T00:26:37;99919.38;;;5.57;53.66
73870;BME280;64924;42.140;24.762;2024-01-25T00:29:02;99971.06;;;5.96;53.50
73870;BME280;64924;42.140;24.762;2024-01-25T00:31:28;99953.53;;;5.92;53.26
73870;BME280;64924;42.140;24.762;2024-01-25T00:33:55;99969.44;;;6.03;53.05
73870;BME280;64924;42.140;24.762;2024-01-25T00:36:21;99971.16;;;5.87;53.40
73870;BME280;64924;42.140;24.762;2024-01-25T00:38:47;99970.03;;;5.89;53.51
73870;BME280;64924;42.140;24.762;2024-01-25T00:41:17;99969.06;;;5.98;53.38
73870;BME280;64924;42.140;24.762;2024-01-25T00:43:46;99956.44;;;5.81;53.34
73870;BME280;64924;42.140;24.762;2024-01-25T00:46:12;99914.56;;;5.69;53.34
73870;BME280;64924;42.140;24.762;2024-01-25T00:48:38;99862.22;;;5.46;53.44
73870;BME280;64924;42.140;24.762;2024-01-25T00:51:07;99900.72;;;5.64;53.61
73870;BME280;64924;42.140;24.762;2024-01-25T00:53:33;99940.41;;;5.97;53.27
73870;BME280;64924;42.140;24.762;2024-01-25T00:55:59;99924.06;;;5.99;52.79
73870;BME280;64924;42.140;24.762;2024-01-25T00:58:25;99920.59;;;6.15;52.45
73870;BME280;64924;42.140;24.762;2024-01-25T01:00:50;99921.34;;;6.25;51.68
73870;BME280;64924;42.140;24.762;2024-01-25T01:03:18;99918.66;;;6.33;51.30
73870;BME280;64924;42.140;24.762;2024-01-25T01:05:47;99917.47;;;6.35;50.73
73870;BME280;64924;42.140;24.762;2024-01-25T01:08:12;99914.19;;;6.50;50.61
73870;BME280;64924;42.140;24.762;2024-01-25T01:10:38;99856.44;;;6.34;50.30
73870;BME280;64924;42.140;24.762;2024-01-25T01:13:03;99899.03;;;6.73;50.11
73870;BME280;64924;42.140;24.762;2024-01-25T01:15:29;99834.06;;;6.58;50.16
73870;BME280;64924;42.140;24.762;2024-01-25T01:17:54;99819.38;;;6.69;49.52
73870;BME280;64924;42.140;24.762;2024-01-25T01:20:20;99862.47;;;7.03;49.43
73870;BME280;64924;42.140;24.762;2024-01-25T01:22:45;99864.16;;;7.20;49.39
73870;BME280;64924;42.140;24.762;2024-01-25T01:25:11;99865.00;;;7.37;49.12
73870;BME280;64924;42.140;24.762;2024-01-25T01:27:36;99851.13;;;7.48;48.92
73870;BME280;64924;42.140;24.762;2024-01-25T01:30:03;99855.00;;;7.62;48.76
73870;BME280;64924;42.140;24.762;2024-01-25T01:32:29;99862.69;;;7.81;48.58
73870;BME280;64924;42.140;24.762;2024-01-25T01:34:54;99852.53;;;7.91;47.69
73870;BME280;64924;42.140;24.762;2024-01-25T01:37:20;99859.97;;;7.89;47.61
73870;BME280;64924;42.140;24.762;2024-01-25T01:39:45;99856.91;;;8.00;47.07
73870;BME280;64924;42.140;24.762;2024-01-25T01:42:11;99855.38;;;7.98;46.78
73870;BME280;64924;42.140;24.762;2024-01-25T01:44:36;99851.31;;;8.02;46.06
73870;BME280;64924;42.140;24.762;2024-01-25T01:47:02;99790.50;;;7.82;45.61
73870;BME280;64924;42.140;24.762;2024-01-25T01:49:27;99840.25;;;8.20;45.04
73870;BME280;64924;42.140;24.762;2024-01-25T01:51:53;99852.75;;;8.21;45.00
73870;BME280;64924;42.140;24.762;2024-01-25T01:54:19;99854.44;;;8.22;44.56
73870;BME280;64924;42.140;24.762;2024-01-25T01:56:44;99847.84;;;8.24;44.28
73870;BME280;64924;42.140;24.762;2024-01-25T01:59:10;99838.00;;;8.31;44.46
73870;BME280;64924;42.140;24.762;2024-01-25T02:01:37;99840.34;;;8.43;44.33
73870;BME280;64924;42.140;24.762;2024-01-25T02:04:03;99818.88;;;8.41;44.26
73870;BME280;64924;42.140;24.762;2024-01-25T02:06:29;99820.00;;;8.47;43.98
73870;BME280;64924;42.140;24.762;2024-01-25T02:08:55;99827.78;;;8.50;44.09
73870;BME280;64924;42.140;24.762;2024-01-25T02:11:24;99831.69;;;8.47;44.09
73870;BME280;64924;42.140;24.762;2024-01-25T02:13:49;99823.75;;;8.46;43.69
73870;BME280;64924;42.140;24.762;2024-01-25T02:16:15;99823.25;;;8.42;44.06
73870;BME280;64924;42.140;24.762;2024-01-25T02:18:41;99820.50;;;8.50;43.97
73870;BME280;64924;42.140;24.762;2024-01-25T02:21:07;99803.28;;;8.43;44.35
73870;BME280;64924;42.140;24.762;2024-01-25T02:23:32;99814.72;;;8.53;44.47
73870;BME280;64924;42.140;24.762;2024-01-25T02:25:57;99805.34;;;8.64;44.30
73870;BME280;64924;42.140;24.762;2024-01-25T02:28:23;99802.44;;;8.65;44.40
73870;BME280;64924;42.140;24.762;2024-01-25T02:30:49;99806.13;;;8.73;44.40
73870;BME280;64924;42.140;24.762;2024-01-25T02:33:14;99803.00;;;8.84;44.89
73870;BME280;64924;42.140;24.762;2024-01-25T02:35:40;99793.75;;;8.93;44.54
73870;BME280;64924;42.140;24.762;2024-01-25T02:38:05;99768.25;;;8.87;45.11
73870;BME280;64924;42.140;24.762;2024-01-25T02:40:30;99798.09;;;9.02;45.44
73870;BME280;64924;42.140;24.762;2024-01-25T02:42:56;99748.81;;;8.84;45.63
73870;BME280;64924;42.140;24.762;2024-01-25T02:45:22;99790.50;;;9.20;45.42
73870;BME280;64924;42.140;24.762;2024-01-25T02:47:48;99786.22;;;9.26;45.82
73870;BME280;64924;42.140;24.762;2024-01-25T02:50:14;99781.69;;;9.33;45.97
73870;BME280;64924;42.140;24.762;2024-01-25T02:52:40;99779.75;;;9.42;46.14
73870;BME280;64924;42.140;24.762;2024-01-25T02:55:05;99768.53;;;9.45;46.26
73870;BME280;64924;42.140;24.762;2024-01-25T02:57:31;99770.31;;;9.52;46.07
73870;BME280;64924;42.140;24.762;2024-01-25T02:59:56;99722.81;;;9.42;45.96
73870;BME280;64924;42.140;24.762;2024-01-25T03:02:22;99749.00;;;9.64;45.80
73870;BME280;64924;42.140;24.762;2024-01-25T03:04:48;99753.19;;;9.66;46.02
73870;BME280;64924;42.140;24.762;2024-01-25T03:07:13;99747.69;;;9.60;46.25
73870;BME280;64924;42.140;24.762;2024-01-25T03:09:39;99761.44;;;9.73;46.24
73870;BME280;64924;42.140;24.762;2024-01-25T03:12:05;99763.00;;;9.82;46.14
73870;BME280;64924;42.140;24.762;2024-01-25T03:14:30;99747.19;;;9.86;46.38
73870;BME280;64924;42.140;24.762;2024-01-25T03:16:56;99757.78;;;9.95;46.00
73870;BME280;64924;42.140;24.762;2024-01-25T03:19:25;99708.84;;;9.74;46.39
73870;BME280;64924;42.140;24.762;2024-01-25T03:21:54;99765.72;;;9.97;46.95
73870;BME280;64924;42.140;24.762;2024-01-25T03:24:20;99669.13;;;9.52;47.14
73870;BME280;64924;42.140;24.762;2024-01-25T03:26:46;99746.88;;;10.10;47.10
73870;BME280;64924;42.140;24.762;2024-01-25T03:29:12;99738.06;;;10.08;47.50
73870;BME280;64924;42.140;24.762;2024-01-25T03:31:37;99745.06;;;10.17;47.39
73870;BME280;64924;42.140;24.762;2024-01-25T03:34:04;99743.13;;;10.11;47.15
73870;BME280;64924;42.140;24.762;2024-01-25T03:36:30;99738.63;;;10.03;47.56
73870;BME280;64924;42.140;24.762;2024-01-25T03:38:56;99744.63;;;10.14;47.46
73870;BME280;64924;42.140;24.762;2024-01-25T03:41:22;99749.91;;;10.00;47.58
73870;BME280;64924;42.140;24.762;2024-01-25T03:43:48;99752.72;;;9.92;47.83
73870;BME280;64924;42.140;24.762;2024-01-25T03:46:14;99757.13;;;9.93;47.89
73870;BME280;64924;42.140;24.762;2024-01-25T03:48:39;99759.84;;;9.93;47.66
73870;BME280;64924;42.140;24.762;2024-01-25T03:51:05;99701.13;;;9.56;47.18
73870;BME280;64924;42.140;24.762;2024-01-25T03:53:30;99770.41;;;9.88;46.49
73870;BME280;64924;42.140;24.762;2024-01-25T03:55:56;99770.50;;;9.80;46.61
73870;BME280;64924;42.140;24.762;2024-01-25T03:58:21;99772.00;;;9.83;46.90
73870;BME280;64924;42.140;24.762;2024-01-25T04:00:47;99774.25;;;9.79;46.50
73870;BME280;64924;42.140;24.762;2024-01-25T04:03:14;99784.06;;;9.80;46.51
73870;BME280;64924;42.140;24.762;2024-01-25T04:05:39;99785.28;;;9.78;46.69
73870;BME280;64924;42.140;24.762;2024-01-25T04:08:05;99764.59;;;9.77;46.55
73870;BME280;64924;42.140;24.762;2024-01-25T04:10:31;99723.94;;;9.62;47.09
73870;BME280;64924;42.140;24.762;2024-01-25T04:12:57;99723.16;;;9.68;46.86
73870;BME280;64924;42.140;24.762;2024-01-25T04:15:22;99743.34;;;9.95;47.06
73870;BME280;64924;42.140;24.762;2024-01-25T04:17:48;99741.09;;;9.98;46.88
73870;BME280;64924;42.140;24.762;2024-01-25T04:20:14;99739.66;;;10.02;47.07
73870;BME280;64924;42.140;24.762;2024-01-25T04:22:40;99752.28;;;10.10;46.83
73870;BME280;64924;42.140;24.762;2024-01-25T04:25:06;99762.22;;;10.18;46.86
73870;BME280;64924;42.140;24.762;2024-01-25T04:27:32;99765.59;;;10.20;46.54
73870;BME280;64924;42.140;24.762;2024-01-25T04:29:57;99788.63;;;10.24;46.41
73870;BME280;64924;42.140;24.762;2024-01-25T04:32:23;99801.06;;;10.33;46.33
73870;BME280;64924;42.140;24.762;2024-01-25T04:34:48;99804.81;;;10.32;46.14
73870;BME280;64924;42.140;24.762;2024-01-25T04:37:14;99808.66;;;10.37;46.58
73870;BME280;64924;42.140;24.762;2024-01-25T04:39:39;99755.19;;;10.09;46.40
73870;BME280;64924;42.140;24.762;2024-01-25T04:42:05;99790.47;;;10.38;46.54
73870;BME280;64924;42.140;24.762;2024-01-25T04:44:30;99796.50;;;10.33;46.79
73870;BME280;64924;42.140;24.762;2024-01-25T04:46:57;99775.72;;;10.26;47.12
73870;BME280;64924;42.140;24.762;2024-01-25T04:49:22;99773.00;;;10.26;47.05
73870;BME280;64924;42.140;24.762;2024-01-25T04:51:48;99790.13;;;10.26;46.98
73870;BME280;64924;42.140;24.762;2024-01-25T04:54:13;99788.06;;;10.28;47.46
73870;BME280;64924;42.140;24.762;2024-01-25T04:56:41;99783.00;;;10.25;47.42
73870;BME280;64924;42.140;24.762;2024-01-25T04:59:07;99792.66;;;10.28;47.45
73870;BME280;64924;42.140;24.762;2024-01-25T05:01:32;99789.09;;;10.27;47.86
73870;BME280;64924;42.140;24.762;2024-01-25T05:03:58;99780.38;;;10.32;47.57
73870;BME280;64924;42.140;24.762;2024-01-25T05:06:23;99788.34;;;10.33;47.94
73870;BME280;64924;42.140;24.762;2024-01-25T05:08:49;99785.81;;;10.32;47.55
73870;BME280;64924;42.140;24.762;2024-01-25T05:11:14;99808.56;;;10.31;48.03
73870;BME280;64924;42.140;24.762;2024-01-25T05:13:39;99795.25;;;10.36;47.84
73870;BME280;64924;42.140;24.762;2024-01-25T05:16:05;99778.78;;;10.37;47.80
73870;BME280;64924;42.140;24.762;2024-01-25T05:18:31;99788.00;;;10.43;48.16
73870;BME280;64924;42.140;24.762;2024-01-25T05:20:56;99781.03;;;10.55;47.96
73870;BME280;64924;42.140;24.762;2024-01-25T05:23:23;99759.03;;;10.50;48.14
73870;BME280;64924;42.140;24.762;2024-01-25T05:25:48;99748.81;;;10.31;48.28
73870;BME280;64924;42.140;24.762;2024-01-25T05:28:14;99798.66;;;10.59;48.53
73870;BME280;64924;42.140;24.762;2024-01-25T05:30:39;99761.31;;;10.47;48.06
73870;BME280;64924;42.140;24.762;2024-01-25T05:33:05;99803.13;;;10.67;48.01
73870;BME280;64924;42.140;24.762;2024-01-25T05:35:30;99782.88;;;10.69;48.10
73870;BME280;64924;42.140;24.762;2024-01-25T05:37:56;99772.41;;;10.66;47.81
73870;BME280;64924;42.140;24.762;2024-01-25T05:40:21;99787.72;;;10.74;48.40
73870;BME280;64924;42.140;24.762;2024-01-25T05:42:47;99790.66;;;10.73;48.60
73870;BME280;64924;42.140;24.762;2024-01-25T05:45:13;99787.28;;;10.70;48.52
73870;BME280;64924;42.140;24.762;2024-01-25T05:47:38;99786.09;;;10.80;48.54
73870;BME280;64924;42.140;24.762;2024-01-25T05:50:04;99800.34;;;11.03;48.32
73870;BME280;64924;42.140;24.762;2024-01-25T05:52:30;99760.59;;;11.02;47.67
73870;BME280;64924;42.140;24.762;2024-01-25T05:54:56;99773.59;;;11.34;47.06
73870;BME280;64924;42.140;24.762;2024-01-25T05:57:21;99806.94;;;11.71;46.31
73870;BME280;64924;42.140;24.762;2024-01-25T05:59:47;99804.38;;;11.97;45.76
73870;BME280;64924;42.140;24.762;2024-01-25T06:02:13;99770.81;;;11.84;45.59
73870;BME280;64924;42.140;24.762;2024-01-25T06:04:39;99761.41;;;11.93;45.12
73870;BME280;64924;42.140;24.762;2024-01-25T06:07:04;99768.53;;;11.87;45.59
73870;BME280;64924;42.140;24.762;2024-01-25T06:09:30;99827.59;;;11.93;45.82
73870;BME280;64924;42.140;24.762;2024-01-25T06:11:57;99841.16;;;11.80;46.15
73870;BME280;64924;42.140;24.762;2024-01-25T06:14:24;99842.41;;;11.56;46.54
73870;BME280;64924;42.140;24.762;2024-01-25T06:16:49;99865.50;;;11.39;47.56
73870;BME280;64924;42.140;24.762;2024-01-25T06:19:15;99845.31;;;11.27;47.28
73870;BME280;64924;42.140;24.762;2024-01-25T06:21:40;99835.50;;;11.04;47.82
73870;BME280;64924;42.140;24.762;2024-01-25T06:24:06;99871.13;;;11.16;48.26
73870;BME280;64924;42.140;24.762;2024-01-25T06:26:32;99878.03;;;11.12;48.46
73870;BME280;64924;42.140;24.762;2024-01-25T06:28:58;99842.00;;;10.89;48.60
73870;BME280;64924;42.140;24.762;2024-01-25T06:31:24;99869.34;;;11.02;48.80
73870;BME280;64924;42.140;24.762;2024-01-25T06:33:49;99844.66;;;10.82;49.18
73870;BME280;64924;42.140;24.762;2024-01-25T06:36:19;99852.44;;;10.85;49.34
73870;BME280;64924;42.140;24.762;2024-01-25T06:38:45;99849.91;;;10.84;49.35
73870;BME280;64924;42.140;24.762;2024-01-25T06:41:11;99830.38;;;10.74;49.21
73870;BME280;64924;42.140;24.762;2024-01-25T06:43:36;99867.25;;;10.83;49.04
73870;BME280;64924;42.140;24.762;2024-01-25T06:46:02;99821.75;;;10.70;48.62
73870;BME280;64924;42.140;24.762;2024-01-25T06:48:27;99856.53;;;10.96;48.05
73870;BME280;64924;42.140;24.762;2024-01-25T06:50:53;99830.50;;;10.87;47.58
73870;BME280;64924;42.140;24.762;2024-01-25T06:53:19;99813.31;;;11.29;45.56
73870;BME280;64924;42.140;24.762;2024-01-25T06:55:44;99847.59;;;12.07;44.23
73870;BME280;64924;42.140;24.762;2024-01-25T06:58:10;99848.59;;;12.41;43.08
73870;BME280;64924;42.140;24.762;2024-01-25T07:00:36;99838.03;;;12.79;41.67
73870;BME280;64924;42.140;24.762;2024-01-25T07:03:04;99816.41;;;12.77;41.47
73870;BME280;64924;42.140;24.762;2024-01-25T07:05:30;99848.63;;;13.61;40.13
73870;BME280;64924;42.140;24.762;2024-01-25T07:07:58;99835.59;;;13.83;39.01
73870;BME280;64924;42.140;24.762;2024-01-25T07:10:24;99861.44;;;13.60;40.08
73870;BME280;64924;42.140;24.762;2024-01-25T07:12:50;99854.94;;;13.28;41.00
73870;BME280;64924;42.140;24.762;2024-01-25T07:15:16;99845.84;;;13.15;41.03
73870;BME280;64924;42.140;24.762;2024-01-25T07:17:42;99845.81;;;12.88;41.54
73870;BME280;64924;42.140;24.762;2024-01-25T07:20:08;99853.53;;;12.71;41.83
73870;BME280;64924;42.140;24.762;2024-01-25T07:22:34;99816.25;;;12.31;41.96
73870;BME280;64924;42.140;24.762;2024-01-25T07:24:59;99833.38;;;12.12;43.05
73870;BME280;64924;42.140;24.762;2024-01-25T07:27:25;99869.06;;;12.30;43.21
73870;BME280;64924;42.140;24.762;2024-01-25T07:29:50;99837.59;;;12.14;43.40
73870;BME280;64924;42.140;24.762;2024-01-25T07:32:16;99883.28;;;12.19;43.20
73870;BME280;64924;42.140;24.762;2024-01-25T07:34:42;99875.03;;;12.47;42.81
73870;BME280;64924;42.140;24.762;2024-01-25T07:37:07;99880.25;;;13.09;41.21
73870;BME280;64924;42.140;24.762;2024-01-25T07:39:33;99871.28;;;13.22;40.44
73870;BME280;64924;42.140;24.762;2024-01-25T07:41:58;99873.41;;;13.26;40.12
73870;BME280;64924;42.140;24.762;2024-01-25T07:44:24;99883.22;;;13.14;40.11
73870;BME280;64924;42.140;24.762;2024-01-25T07:46:49;99863.44;;;12.86;40.61
73870;BME280;64924;42.140;24.762;2024-01-25T07:49:15;99863.34;;;12.59;41.10
73870;BME280;64924;42.140;24.762;2024-01-25T07:51:40;99878.03;;;12.58;40.64
73870;BME280;64924;42.140;24.762;2024-01-25T07:54:06;99872.56;;;12.58;40.99
73870;BME280;64924;42.140;24.762;2024-01-25T07:56:31;99884.88;;;12.95;40.55
73870;BME280;64924;42.140;24.762;2024-01-25T07:58:57;99889.97;;;13.38;39.86
73870;BME280;64924;42.140;24.762;2024-01-25T08:01:25;99881.78;;;13.84;39.20
73870;BME280;64924;42.140;24.762;2024-01-25T08:03:50;99863.50;;;14.04;38.20
73870;BME280;64924;42.140;24.762;2024-01-25T08:06:16;99853.97;;;14.27;38.32
73870;BME280;64924;42.140;24.762;2024-01-25T08:08:41;99856.81;;;14.58;37.51
73870;BME280;64924;42.140;24.762;2024-01-25T08:11:07;99861.50;;;14.89;36.83
73870;BME280;64924;42.140;24.762;2024-01-25T08:13:33;99845.56;;;15.18;36.06
73870;BME280;64924;42.140;24.762;2024-01-25T08:15:59;99855.00;;;15.22;35.77
73870;BME280;64924;42.140;24.762;2024-01-25T08:18:24;99849.97;;;15.19;36.19
73870;BME280;64924;42.140;24.762;2024-01-25T08:20:50;99856.31;;;15.69;35.15
73870;BME280;64924;42.140;24.762;2024-01-25T08:23:16;99840.88;;;15.50;35.39
73870;BME280;64924;42.140;24.762;2024-01-25T08:25:42;99845.59;;;15.92;34.63
73870;BME280;64924;42.140;24.762;2024-01-25T08:28:07;99844.69;;;16.17;34.67
73870;BME280;64924;42.140;24.762;2024-01-25T08:30:33;99798.53;;;16.14;33.80
73870;BME280;64924;42.140;24.762;2024-01-25T08:32:59;99806.59;;;16.09;34.32
73870;BME280;64924;42.140;24.762;2024-01-25T08:35:24;99806.16;;;15.93;34.39
73870;BME280;64924;42.140;24.762;2024-01-25T08:37:50;99829.53;;;16.14;34.24
73870;BME280;64924;42.140;24.762;2024-01-25T08:40:15;99832.25;;;16.14;34.52
73870;BME280;64924;42.140;24.762;2024-01-25T08:42:41;99818.69;;;15.83;34.65
73870;BME280;64924;42.140;24.762;2024-01-25T08:45:07;99827.69;;;15.65;35.24
73870;BME280;64924;42.140;24.762;2024-01-25T08:47:36;99805.03;;;15.26;35.56
73870;BME280;64924;42.140;24.762;2024-01-25T08:50:02;99817.84;;;15.08;35.95
73870;BME280;64924;42.140;24.762;2024-01-25T08:52:29;99815.84;;;15.21;35.75
73870;BME280;64924;42.140;24.762;2024-01-25T08:54:54;99770.91;;;15.04;35.87
73870;BME280;64924;42.140;24.762;2024-01-25T08:57:20;99794.44;;;15.36;35.74
73870;BME280;64924;42.140;24.762;2024-01-25T08:59:45;99812.66;;;15.49;35.54
73870;BME280;64924;42.140;24.762;2024-01-25T09:02:11;99810.50;;;15.58;35.42
73870;BME280;64924;42.140;24.762;2024-01-25T09:04:37;99811.78;;;15.55;35.11
73870;BME280;64924;42.140;24.762;2024-01-25T09:07:03;99817.84;;;15.32;35.39
73870;BME280;64924;42.140;24.762;2024-01-25T09:09:28;99776.16;;;14.81;35.87
73870;BME280;64924;42.140;24.762;2024-01-25T09:11:54;99800.16;;;14.79;35.90
73870;BME280;64924;42.140;24.762;2024-01-25T09:14:19;99828.13;;;14.81;35.97
73870;BME280;64924;42.140;24.762;2024-01-25T09:16:45;99819.47;;;14.84;35.62
73870;BME280;64924;42.140;24.762;2024-01-25T09:19:11;99812.47;;;14.88;35.73
73870;BME280;64924;42.140;24.762;2024-01-25T09:21:39;99811.00;;;14.85;36.14
73870;BME280;64924;42.140;24.762;2024-01-25T09:24:05;99833.06;;;14.59;36.36
73870;BME280;64924;42.140;24.762;2024-01-25T09:26:31;99840.03;;;14.48;36.70
73870;BME280;64924;42.140;24.762;2024-01-25T09:28:57;99832.91;;;14.47;36.85
73870;BME280;64924;42.140;24.762;2024-01-25T09:31:22;99827.88;;;14.37;36.81
73870;BME280;64924;42.140;24.762;2024-01-25T09:33:48;99846.81;;;14.32;36.84
73870;BME280;64924;42.140;24.762;2024-01-25T09:36:13;99838.91;;;14.04;37.42
73870;BME280;64924;42.140;24.762;2024-01-25T09:38:41;99736.31;;;13.51;37.10
73870;BME280;64924;42.140;24.762;2024-01-25T09:41:07;99823.47;;;14.30;36.68
73870;BME280;64924;42.140;24.762;2024-01-25T09:43:33;99837.34;;;14.35;36.34
73870;BME280;64924;42.140;24.762;2024-01-25T09:46:00;99841.06;;;14.54;36.35
73870;BME280;64924;42.140;24.762;2024-01-25T09:48:25;99846.50;;;14.60;36.23
73870;BME280;64924;42.140;24.762;2024-01-25T09:50:55;99841.03;;;14.60;35.79
73870;BME280;64924;42.140;24.762;2024-01-25T09:53:23;99828.41;;;14.66;35.70
73870;BME280;64924;42.140;24.762;2024-01-25T09:56:05;99809.97;;;14.48;35.66
73870;BME280;64924;42.140;24.762;2024-01-25T09:58:42;99834.56;;;14.48;36.09
73870;BME280;64924;42.140;24.762;2024-01-25T10:01:10;99853.94;;;14.33;36.35
73870;BME280;64924;42.140;24.762;2024-01-25T10:03:36;99837.97;;;14.30;36.32
73870;BME280;64924;42.140;24.762;2024-01-25T10:06:02;99829.81;;;14.24;36.60
73870;BME280;64924;42.140;24.762;2024-01-25T10:08:29;99823.56;;;14.03;36.52
73870;BME280;64924;42.140;24.762;2024-01-25T10:10:55;99824.00;;;14.07;36.23
73870;BME280;64924;42.140;24.762;2024-01-25T10:13:21;99831.31;;;14.13;36.14
73870;BME280;64924;42.140;24.762;2024-01-25T10:15:47;99824.13;;;14.19;36.50
73870;BME280;64924;42.140;24.762;2024-01-25T10:18:13;99822.25;;;14.13;36.33
73870;BME280;64924;42.140;24.762;2024-01-25T10:20:40;99823.09;;;14.20;36.22
73870;BME280;64924;42.140;24.762;2024-01-25T10:23:06;99818.88;;;14.24;35.97
73870;BME280;64924;42.140;24.762;2024-01-25T10:25:36;99812.16;;;14.20;36.09
73870;BME280;64924;42.140;24.762;2024-01-25T10:28:05;99817.78;;;14.38;36.08
73870;BME280;64924;42.140;24.762;2024-01-25T10:30:35;99811.28;;;14.26;36.20
73870;BME280;64924;42.140;24.762;2024-01-25T10:33:01;99821.41;;;14.19;36.09
73870;BME280;64924;42.140;24.762;2024-01-25T10:35:27;99803.00;;;13.94;36.64
73870;BME280;64924;42.140;24.762;2024-01-25T10:37:53;99813.06;;;14.07;36.37
73870;BME280;64924;42.140;24.762;2024-01-25T10:40:19;99812.38;;;14.12;36.72
73870;BME280;64924;42.140;24.762;2024-01-25T10:42:46;99803.81;;;14.08;36.68
73870;BME280;64924;42.140;24.762;2024-01-25T10:45:11;99795.75;;;14.20;36.39
73870;BME280;64924;42.140;24.762;2024-01-25T10:47:38;99797.00;;;14.24;36.36
73870;BME280;64924;42.140;24.762;2024-01-25T10:50:07;99807.28;;;14.28;35.97
73870;BME280;64924;42.140;24.762;2024-01-25T10:52:34;99793.84;;;14.27;36.03
73870;BME280;64924;42.140;24.762;2024-01-25T10:55:01;99765.94;;;14.12;35.66
73870;BME280;64924;42.140;24.762;2024-01-25T10:57:39;99795.53;;;14.28;35.81
73870;BME280;64924;42.140;24.762;2024-01-25T11:00:10;99794.50;;;14.16;35.66
73870;BME280;64924;42.140;24.762;2024-01-25T11:02:36;99798.97;;;14.03;35.91
73870;BME280;64924;42.140;24.762;2024-01-25T11:05:06;99796.25;;;14.10;35.68
73870;BME280;64924;42.140;24.762;2024-01-25T11:07:50;99790.78;;;14.10;35.57
73870;BME280;64924;42.140;24.762;2024-01-25T11:10:21;99801.66;;;14.17;35.35
73870;BME280;64924;42.140;24.762;2024-01-25T11:13:06;99803.75;;;14.15;35.16
73870;BME280;64924;42.140;24.762;2024-01-25T11:15:37;99799.63;;;14.05;35.45
73870;BME280;64924;42.140;24.762;2024-01-25T11:18:04;99730.56;;;13.79;35.60
73870;BME280;64924;42.140;24.762;2024-01-25T11:20:34;99792.03;;;14.08;35.79
73870;BME280;64924;42.140;24.762;2024-01-25T11:23:04;99794.34;;;14.11;35.57
73870;BME280;64924;42.140;24.762;2024-01-25T11:25:34;99802.28;;;14.19;35.52
73870;BME280;64924;42.140;24.762;2024-01-25T11:28:01;99789.25;;;14.21;35.62
73870;BME280;64924;42.140;24.762;2024-01-25T11:30:29;99747.50;;;14.00;35.33
73870;BME280;64924;42.140;24.762;2024-01-25T11:32:55;99778.91;;;14.29;35.33
73870;BME280;64924;42.140;24.762;2024-01-25T11:35:21;99785.22;;;14.30;35.16
73870;BME280;64924;42.140;24.762;2024-01-25T11:37:48;99793.84;;;14.27;35.37
73870;BME280;64924;42.140;24.762;2024-01-25T11:40:15;99802.88;;;14.27;35.58
73870;BME280;64924;42.140;24.762;2024-01-25T11:42:42;99798.16;;;14.03;35.92
73870;BME280;64924;42.140;24.762;2024-01-25T11:45:10;99795.63;;;14.01;36.29
73870;BME280;64924;42.140;24.762;2024-01-25T11:47:37;99793.53;;;14.03;36.32
73870;BME280;64924;42.140;24.762;2024-01-25T11:50:03;99797.09;;;13.97;36.36
73870;BME280;64924;42.140;24.762;2024-01-25T11:52:29;99789.53;;;13.99;36.54
73870;BME280;64924;42.140;24.762;2024-01-25T11:54:57;99794.16;;;14.05;36.66
73870;BME280;64924;42.140;24.762;2024-01-25T11:57:23;99726.56;;;13.81;36.36
73870;BME280;64924;42.140;24.762;2024-01-25T11:59:48;99789.63;;;14.31;36.50
73870;BME280;64924;42.140;24.762;2024-01-25T12:02:15;99770.53;;;14.18;36.62
73870;BME280;64924;42.140;24.762;2024-01-25T12:04:40;99762.94;;;14.26;36.64
73870;BME280;64924;42.140;24.762;2024-01-25T12:07:07;99771.97;;;14.33;36.70
73870;BME280;64924;42.140;24.762;2024-01-25T12:09:32;99753.66;;;14.34;36.47
73870;BME280;64924;42.140;24.762;2024-01-25T12:12:00;99746.53;;;14.33;36.67
73870;BME280;64924;42.140;24.762;2024-01-25T12:14:27;99748.63;;;14.31;36.77
73870;BME280;64924;42.140;24.762;2024-01-25T12:16:55;99757.22;;;14.34;36.54
73870;BME280;64924;42.140;24.762;2024-01-25T12:19:20;99739.25;;;14.14;36.00
73870;BME280;64924;42.140;24.762;2024-01-25T12:21:46;99784.19;;;14.24;36.25
73870;BME280;64924;42.140;24.762;2024-01-25T12:24:12;99770.94;;;14.21;36.13
73870;BME280;64924;42.140;24.762;2024-01-25T12:26:38;99679.56;;;13.73;36.24
73870;BME280;64924;42.140;24.762;2024-01-25T12:29:03;99752.78;;;13.95;36.30
73870;BME280;64924;42.140;24.762;2024-01-25T12:31:30;99766.84;;;13.99;35.80
73870;BME280;64924;42.140;24.762;2024-01-25T12:33:56;99711.28;;;13.67;36.05
73870;BME280;64924;42.140;24.762;2024-01-25T12:36:22;99762.25;;;13.86;35.98
73870;BME280;64924;42.140;24.762;2024-01-25T12:38:48;99755.53;;;13.82;36.11
73870;BME280;64924;42.140;24.762;2024-01-25T12:41:14;99745.09;;;13.73;36.35
73870;BME280;64924;42.140;24.762;2024-01-25T12:43:40;99750.50;;;13.79;36.53
73870;BME280;64924;42.140;24.762;2024-01-25T12:46:06;99722.44;;;13.59;36.48
73870;BME280;64924;42.140;24.762;2024-01-25T12:48:31;99748.88;;;13.71;36.57